Aviation Digital Data Service (ADDS)

Output produced by METARs form (1730 UTC 21 September 2019)
found at http://aviationweather.gov/metar/data/
 
KMSY 211120Z 2112/2218 VRB04KT P6SM VCSH SCT030 SCT100 BKN250 
     FM211700 10010G21KT P6SM VCTS SCT030CB SCT080 
     FM220000 11007KT P6SM FEW030 SCT050 
     FM220600 13005KT P6SM FEW045 FEW250